sensor_id;sensor_type;location;lat;lon;timestamp;temperature;humidity
7704;DHT22;3894;49.700;10.770;2022-12-18T00:00:47;-9.80;99.90
7704;DHT22;3894;49.700;10.770;2022-12-18T00:03:16;-9.80;99.90
7704;DHT22;3894;49.700;10.770;2022-12-18T00:05:48;-9.80;99.90
7704;DHT22;3894;49.700;10.770;2022-12-18T00:08:15;-9.90;99.90
7704;DHT22;3894;49.700;10.770;2022-12-18T00:10:40;-9.90;99.90
7704;DHT22;3894;49.700;10.770;2022-12-18T00:13:06;-9.90;99.90
7704;DHT22;3894;49.700;10.770;2022-12-18T00:15:34;-9.90;99.90
7704;DHT22;3894;49.700;10.770;2022-12-18T00:18:00;-10.00;99.90
7704;DHT22;3894;49.700;10.770;2022-12-18T00:20:25;-10.00;99.90
7704;DHT22;3894;49.700;10.770;2022-12-18T00:22:52;-9.90;99.90
7704;DHT22;3894;49.700;10.770;2022-12-18T00:25:18;-9.90;99.90
7704;DHT22;3894;49.700;10.770;2022-12-18T00:27:44;-9.90;99.90
7704;DHT22;3894;49.700;10.770;2022-12-18T00:30:10;-9.90;99.90
7704;DHT22;3894;49.700;10.770;2022-12-18T00:32:36;-9.90;99.90
7704;DHT22;3894;49.700;10.770;2022-12-18T00:35:02;-9.90;99.90
7704;DHT22;3894;49.700;10.770;2022-12-18T00:37:28;-9.90;99.90
7704;DHT22;3894;49.700;10.770;2022-12-18T00:39:54;-10.00;99.90
7704;DHT22;3894;49.700;10.770;2022-12-18T00:42:20;-10.00;99.90
7704;DHT22;3894;49.700;10.770;2022-12-18T00:45:05;-10.00;99.90
7704;DHT22;3894;49.700;10.770;2022-12-18T00:47:30;-10.00;99.90
7704;DHT22;3894;49.700;10.770;2022-12-18T00:49:56;-10.00;99.90
7704;DHT22;3894;49.700;10.770;2022-12-18T00:52:22;-10.00;99.90
7704;DHT22;3894;49.700;10.770;2022-12-18T00:54:50;-10.00;99.90
7704;DHT22;3894;49.700;10.770;2022-12-18T00:57:16;-9.90;99.90
7704;DHT22;3894;49.700;10.770;2022-12-18T00:59:42;-9.80;99.90
7704;DHT22;3894;49.700;10.770;2022-12-18T01:02:07;-9.80;99.90
7704;DHT22;3894;49.700;10.770;2022-12-18T01:04:33;-9.90;99.90
7704;DHT22;3894;49.700;10.770;2022-12-18T01:07:05;-10.00;99.90
7704;DHT22;3894;49.700;10.770;2022-12-18T01:09:31;-10.00;99.90
7704;DHT22;3894;49.700;10.770;2022-12-18T01:11:57;-10.00;99.90
7704;DHT22;3894;49.700;10.770;2022-12-18T01:14:22;-9.90;99.90
7704;DHT22;3894;49.700;10.770;2022-12-18T01:16:48;-10.00;99.90
7704;DHT22;3894;49.700;10.770;2022-12-18T01:19:14;-10.10;99.90
7704;DHT22;3894;49.700;10.770;2022-12-18T01:21:39;-10.10;99.90
7704;DHT22;3894;49.700;10.770;2022-12-18T01:24:05;-10.20;99.90
7704;DHT22;3894;49.700;10.770;2022-12-18T01:26:31;-10.20;99.90
7704;DHT22;3894;49.700;10.770;2022-12-18T01:28:57;-10.10;99.90
7704;DHT22;3894;49.700;10.770;2022-12-18T01:31:26;-10.10;99.90
7704;DHT22;3894;49.700;10.770;2022-12-18T01:33:51;-10.10;99.90
7704;DHT22;3894;49.700;10.770;2022-12-18T01:36:20;-10.10;99.90
7704;DHT22;3894;49.700;10.770;2022-12-18T01:38:47;-10.10;99.90
7704;DHT22;3894;49.700;10.770;2022-12-18T01:41:13;-10.10;99.90
7704;DHT22;3894;49.700;10.770;2022-12-18T01:43:44;-10.10;99.90
7704;DHT22;3894;49.700;10.770;2022-12-18T01:46:11;-10.10;99.90
7704;DHT22;3894;49.700;10.770;2022-12-18T01:48:38;-10.20;99.90
7704;DHT22;3894;49.700;10.770;2022-12-18T01:51:05;-10.20;99.90
7704;DHT22;3894;49.700;10.770;2022-12-18T01:53:31;-10.20;99.90
7704;DHT22;3894;49.700;10.770;2022-12-18T01:55:58;-10.30;99.90
7704;DHT22;3894;49.700;10.770;2022-12-18T02:01:11;-10.30;99.90
7704;DHT22;3894;49.700;10.770;2022-12-18T02:03:37;-10.20;99.90
7704;DHT22;3894;49.700;10.770;2022-12-18T02:06:14;-10.20;99.90
7704;DHT22;3894;49.700;10.770;2022-12-18T02:08:56;-10.10;99.90
7704;DHT22;3894;49.700;10.770;2022-12-18T02:14:38;-10.10;99.90
7704;DHT22;3894;49.700;10.770;2022-12-18T02:17:09;-10.10;99.90
7704;DHT22;3894;49.700;10.770;2022-12-18T02:27:30;-10.00;99.90
7704;DHT22;3894;49.700;10.770;2022-12-18T02:29:57;-10.10;99.90
7704;DHT22;3894;49.700;10.770;2022-12-18T02:32:28;-10.10;99.90
7704;DHT22;3894;49.700;10.770;2022-12-18T02:34:56;-10.00;99.90
7704;DHT22;3894;49.700;10.770;2022-12-18T02:37:24;-10.00;99.90
7704;DHT22;3894;49.700;10.770;2022-12-18T02:39:53;-9.90;99.90
7704;DHT22;3894;49.700;10.770;2022-12-18T02:42:20;-10.00;99.90
7704;DHT22;3894;49.700;10.770;2022-12-18T02:44:50;-10.10;99.90
7704;DHT22;3894;49.700;10.770;2022-12-18T02:47:20;-10.20;99.90
7704;DHT22;3894;49.700;10.770;2022-12-18T02:52:53;-10.20;99.90
7704;DHT22;3894;49.700;10.770;2022-12-18T02:56:02;-10.20;99.90
7704;DHT22;3894;49.700;10.770;2022-12-18T02:59:00;-10.20;99.90
7704;DHT22;3894;49.700;10.770;2022-12-18T03:01:46;-10.20;99.90
7704;DHT22;3894;49.700;10.770;2022-12-18T03:04:38;-10.20;99.90
7704;DHT22;3894;49.700;10.770;2022-12-18T03:07:09;-10.20;99.90
7704;DHT22;3894;49.700;10.770;2022-12-18T03:09:39;-10.20;99.90
7704;DHT22;3894;49.700;10.770;2022-12-18T03:17:21;-10.20;99.90
7704;DHT22;3894;49.700;10.770;2022-12-18T03:19:49;-10.20;99.90
7704;DHT22;3894;49.700;10.770;2022-12-18T03:22:18;-10.20;99.90
7704;DHT22;3894;49.700;10.770;2022-12-18T03:24:45;-10.30;99.90
7704;DHT22;3894;49.700;10.770;2022-12-18T03:27:14;-10.30;99.90
7704;DHT22;3894;49.700;10.770;2022-12-18T03:32:38;-10.30;99.90
7704;DHT22;3894;49.700;10.770;2022-12-18T03:35:07;-10.30;99.90
7704;DHT22;3894;49.700;10.770;2022-12-18T03:37:33;-10.30;99.90
7704;DHT22;3894;49.700;10.770;2022-12-18T03:39:59;-10.20;99.90
7704;DHT22;3894;49.700;10.770;2022-12-18T03:42:29;-10.20;99.90
7704;DHT22;3894;49.700;10.770;2022-12-18T03:45:23;-10.10;99.90
7704;DHT22;3894;49.700;10.770;2022-12-18T03:48:20;-10.10;99.90
7704;DHT22;3894;49.700;10.770;2022-12-18T03:51:04;-10.00;99.90
7704;DHT22;3894;49.700;10.770;2022-12-18T03:53:39;-9.90;99.90
7704;DHT22;3894;49.700;10.770;2022-12-18T03:56:08;-9.90;99.90
7704;DHT22;3894;49.700;10.770;2022-12-18T03:58:36;-9.80;99.90
7704;DHT22;3894;49.700;10.770;2022-12-18T04:01:03;-9.80;99.90
7704;DHT22;3894;49.700;10.770;2022-12-18T04:03:31;-9.80;99.90
7704;DHT22;3894;49.700;10.770;2022-12-18T04:05:59;-9.80;99.90
7704;DHT22;3894;49.700;10.770;2022-12-18T04:08:26;-9.80;99.90
7704;DHT22;3894;49.700;10.770;2022-12-18T04:10:52;-9.70;99.90
7704;DHT22;3894;49.700;10.770;2022-12-18T04:13:44;-9.70;99.90
7704;DHT22;3894;49.700;10.770;2022-12-18T04:16:10;-9.80;99.90
7704;DHT22;3894;49.700;10.770;2022-12-18T04:18:35;-9.80;99.90
7704;DHT22;3894;49.700;10.770;2022-12-18T04:21:02;-9.80;99.90
7704;DHT22;3894;49.700;10.770;2022-12-18T04:23:28;-9.70;99.90
7704;DHT22;3894;49.700;10.770;2022-12-18T04:25:54;-9.70;99.90
7704;DHT22;3894;49.700;10.770;2022-12-18T04:28:19;-9.60;99.90
7704;DHT22;3894;49.700;10.770;2022-12-18T04:30:45;-9.50;99.90
7704;DHT22;3894;49.700;10.770;2022-12-18T04:33:12;-9.50;99.90
7704;DHT22;3894;49.700;10.770;2022-12-18T04:35:39;-9.40;99.90
7704;DHT22;3894;49.700;10.770;2022-12-18T04:38:06;-9.40;99.90
7704;DHT22;3894;49.700;10.770;2022-12-18T04:40:35;-9.30;99.90
7704;DHT22;3894;49.700;10.770;2022-12-18T04:43:01;-9.30;99.90
7704;DHT22;3894;49.700;10.770;2022-12-18T04:45:27;-9.20;99.90
7704;DHT22;3894;49.700;10.770;2022-12-18T04:47:52;-9.20;99.90
7704;DHT22;3894;49.700;10.770;2022-12-18T04:50:18;-9.10;99.90
7704;DHT22;3894;49.700;10.770;2022-12-18T04:52:44;-9.10;99.90
7704;DHT22;3894;49.700;10.770;2022-12-18T04:55:09;-9.10;99.90
7704;DHT22;3894;49.700;10.770;2022-12-18T04:57:35;-9.10;99.90
7704;DHT22;3894;49.700;10.770;2022-12-18T05:00:01;-9.10;99.90
7704;DHT22;3894;49.700;10.770;2022-12-18T05:02:27;-9.10;99.90
7704;DHT22;3894;49.700;10.770;2022-12-18T05:04:52;-9.10;99.90
7704;DHT22;3894;49.700;10.770;2022-12-18T05:07:18;-9.00;99.90
7704;DHT22;3894;49.700;10.770;2022-12-18T05:09:43;-9.00;99.90
7704;DHT22;3894;49.700;10.770;2022-12-18T05:12:09;-9.00;99.90
7704;DHT22;3894;49.700;10.770;2022-12-18T05:14:35;-8.90;99.90
7704;DHT22;3894;49.700;10.770;2022-12-18T05:17:00;-8.90;99.90
7704;DHT22;3894;49.700;10.770;2022-12-18T05:19:26;-8.90;99.90
7704;DHT22;3894;49.700;10.770;2022-12-18T05:21:52;-8.90;99.90
7704;DHT22;3894;49.700;10.770;2022-12-18T05:24:17;-8.90;99.90
7704;DHT22;3894;49.700;10.770;2022-12-18T05:26:46;-8.90;99.90
7704;DHT22;3894;49.700;10.770;2022-12-18T05:29:12;-8.90;99.90
7704;DHT22;3894;49.700;10.770;2022-12-18T05:31:38;-8.90;99.90
7704;DHT22;3894;49.700;10.770;2022-12-18T05:34:04;-8.80;99.90
7704;DHT22;3894;49.700;10.770;2022-12-18T05:36:30;-8.70;99.90
7704;DHT22;3894;49.700;10.770;2022-12-18T05:38:55;-8.70;99.90
7704;DHT22;3894;49.700;10.770;2022-12-18T05:41:21;-8.60;99.90
7704;DHT22;3894;49.700;10.770;2022-12-18T05:43:47;-8.60;99.90
7704;DHT22;3894;49.700;10.770;2022-12-18T05:46:15;-8.60;99.90
7704;DHT22;3894;49.700;10.770;2022-12-18T05:48:42;-8.60;99.90
7704;DHT22;3894;49.700;10.770;2022-12-18T05:51:13;-8.50;99.90
7704;DHT22;3894;49.700;10.770;2022-12-18T05:53:40;-8.50;99.90
7704;DHT22;3894;49.700;10.770;2022-12-18T05:56:08;-8.40;99.90
7704;DHT22;3894;49.700;10.770;2022-12-18T05:58:34;-8.30;99.90
7704;DHT22;3894;49.700;10.770;2022-12-18T06:01:10;-8.30;99.90
7704;DHT22;3894;49.700;10.770;2022-12-18T06:03:36;-8.20;99.90
7704;DHT22;3894;49.700;10.770;2022-12-18T06:06:02;-8.20;99.90
7704;DHT22;3894;49.700;10.770;2022-12-18T06:08:28;-8.10;99.90
7704;DHT22;3894;49.700;10.770;2022-12-18T06:10:53;-8.10;99.90
7704;DHT22;3894;49.700;10.770;2022-12-18T06:13:20;-8.10;99.90
7704;DHT22;3894;49.700;10.770;2022-12-18T06:15:46;-8.10;99.90
7704;DHT22;3894;49.700;10.770;2022-12-18T06:18:12;-8.10;99.90
7704;DHT22;3894;49.700;10.770;2022-12-18T06:20:37;-8.10;99.90
7704;DHT22;3894;49.700;10.770;2022-12-18T06:23:05;-8.10;99.90
7704;DHT22;3894;49.700;10.770;2022-12-18T06:25:31;-8.10;99.90
7704;DHT22;3894;49.700;10.770;2022-12-18T06:27:57;-8.10;99.90
7704;DHT22;3894;49.700;10.770;2022-12-18T06:30:22;-8.10;99.90
7704;DHT22;3894;49.700;10.770;2022-12-18T06:32:52;-8.00;99.90
7704;DHT22;3894;49.700;10.770;2022-12-18T06:35:17;-8.00;99.90
7704;DHT22;3894;49.700;10.770;2022-12-18T06:37:46;-8.00;99.90
7704;DHT22;3894;49.700;10.770;2022-12-18T06:40:11;-8.00;99.90
7704;DHT22;3894;49.700;10.770;2022-12-18T06:42:37;-8.00;99.90
7704;DHT22;3894;49.700;10.770;2022-12-18T06:45:03;-8.00;99.90
7704;DHT22;3894;49.700;10.770;2022-12-18T06:47:28;-7.90;99.90
7704;DHT22;3894;49.700;10.770;2022-12-18T06:49:54;-7.90;99.90
7704;DHT22;3894;49.700;10.770;2022-12-18T06:52:19;-7.90;99.90
7704;DHT22;3894;49.700;10.770;2022-12-18T06:54:45;-7.90;99.90
7704;DHT22;3894;49.700;10.770;2022-12-18T06:57:11;-7.90;99.90
7704;DHT22;3894;49.700;10.770;2022-12-18T06:59:43;-7.90;99.90
7704;DHT22;3894;49.700;10.770;2022-12-18T07:02:11;-7.90;99.90
7704;DHT22;3894;49.700;10.770;2022-12-18T07:04:37;-7.90;99.90
7704;DHT22;3894;49.700;10.770;2022-12-18T07:07:03;-7.90;99.90
7704;DHT22;3894;49.700;10.770;2022-12-18T07:09:29;-7.90;99.90
7704;DHT22;3894;49.700;10.770;2022-12-18T07:11:54;-7.90;99.90
7704;DHT22;3894;49.700;10.770;2022-12-18T07:14:20;-7.80;99.90
7704;DHT22;3894;49.700;10.770;2022-12-18T07:16:46;-7.90;99.90
7704;DHT22;3894;49.700;10.770;2022-12-18T07:19:14;-7.80;99.90
7704;DHT22;3894;49.700;10.770;2022-12-18T07:21:52;-7.80;99.90
7704;DHT22;3894;49.700;10.770;2022-12-18T07:24:18;-7.80;99.90
7704;DHT22;3894;49.700;10.770;2022-12-18T07:26:46;-7.80;99.90
7704;DHT22;3894;49.700;10.770;2022-12-18T07:29:11;-7.70;99.90
7704;DHT22;3894;49.700;10.770;2022-12-18T07:31:37;-7.70;99.90
7704;DHT22;3894;49.700;10.770;2022-12-18T07:34:03;-7.70;99.90
7704;DHT22;3894;49.700;10.770;2022-12-18T07:36:28;-7.60;99.90
7704;DHT22;3894;49.700;10.770;2022-12-18T07:38:54;-7.60;99.90
7704;DHT22;3894;49.700;10.770;2022-12-18T07:41:20;-7.60;99.90
7704;DHT22;3894;49.700;10.770;2022-12-18T07:43:46;-7.60;99.90
7704;DHT22;3894;49.700;10.770;2022-12-18T07:46:13;-7.50;99.90
7704;DHT22;3894;49.700;10.770;2022-12-18T07:48:40;-7.50;99.90
7704;DHT22;3894;49.700;10.770;2022-12-18T07:51:06;-7.40;99.90
7704;DHT22;3894;49.700;10.770;2022-12-18T07:53:33;-7.40;99.90
7704;DHT22;3894;49.700;10.770;2022-12-18T07:56:01;-7.30;99.90
7704;DHT22;3894;49.700;10.770;2022-12-18T07:58:28;-7.30;99.90
7704;DHT22;3894;49.700;10.770;2022-12-18T08:00:53;-7.30;99.90
7704;DHT22;3894;49.700;10.770;2022-12-18T08:03:19;-7.30;99.90
7704;DHT22;3894;49.700;10.770;2022-12-18T08:05:45;-7.20;99.90
7704;DHT22;3894;49.700;10.770;2022-12-18T08:08:11;-7.20;99.90
7704;DHT22;3894;49.700;10.770;2022-12-18T08:10:37;-7.10;99.90
7704;DHT22;3894;49.700;10.770;2022-12-18T08:13:04;-7.10;99.90
7704;DHT22;3894;49.700;10.770;2022-12-18T08:15:29;-7.10;99.90
7704;DHT22;3894;49.700;10.770;2022-12-18T08:17:58;-7.10;99.90
7704;DHT22;3894;49.700;10.770;2022-12-18T08:20:24;-7.10;99.90
7704;DHT22;3894;49.700;10.770;2022-12-18T08:22:50;-7.10;99.90
7704;DHT22;3894;49.700;10.770;2022-12-18T08:25:15;-7.00;99.90
7704;DHT22;3894;49.700;10.770;2022-12-18T08:27:41;-7.00;99.90
7704;DHT22;3894;49.700;10.770;2022-12-18T08:30:07;-6.90;99.90
7704;DHT22;3894;49.700;10.770;2022-12-18T08:32:33;-6.90;99.90
7704;DHT22;3894;49.700;10.770;2022-12-18T08:34:59;-6.90;99.90
7704;DHT22;3894;49.700;10.770;2022-12-18T08:37:25;-6.90;99.90
7704;DHT22;3894;49.700;10.770;2022-12-18T08:39:50;-6.80;99.90
7704;DHT22;3894;49.700;10.770;2022-12-18T08:42:16;-6.80;99.90
7704;DHT22;3894;49.700;10.770;2022-12-18T08:45:01;-6.80;99.90
7704;DHT22;3894;49.700;10.770;2022-12-18T08:47:27;-6.70;99.90
7704;DHT22;3894;49.700;10.770;2022-12-18T08:49:52;-6.70;99.90
7704;DHT22;3894;49.700;10.770;2022-12-18T08:52:18;-6.70;99.90
7704;DHT22;3894;49.700;10.770;2022-12-18T08:54:44;-6.60;99.90
7704;DHT22;3894;49.700;10.770;2022-12-18T08:57:09;-6.60;99.90
7704;DHT22;3894;49.700;10.770;2022-12-18T08:59:35;-6.50;99.90
7704;DHT22;3894;49.700;10.770;2022-12-18T09:02:00;-6.50;99.90
7704;DHT22;3894;49.700;10.770;2022-12-18T09:04:26;-6.40;99.90
7704;DHT22;3894;49.700;10.770;2022-12-18T09:06:52;-6.40;99.90
7704;DHT22;3894;49.700;10.770;2022-12-18T09:09:17;-6.30;99.90
7704;DHT22;3894;49.700;10.770;2022-12-18T09:11:43;-6.30;99.90
7704;DHT22;3894;49.700;10.770;2022-12-18T09:14:09;-6.30;99.90
7704;DHT22;3894;49.700;10.770;2022-12-18T09:16:35;-6.20;99.90
7704;DHT22;3894;49.700;10.770;2022-12-18T09:19:02;-6.20;99.90
7704;DHT22;3894;49.700;10.770;2022-12-18T09:21:30;-6.20;99.90
7704;DHT22;3894;49.700;10.770;2022-12-18T09:23:56;-6.20;99.90
7704;DHT22;3894;49.700;10.770;2022-12-18T09:26:23;-6.10;99.90
7704;DHT22;3894;49.700;10.770;2022-12-18T09:28:49;-6.00;99.90
7704;DHT22;3894;49.700;10.770;2022-12-18T09:31:23;-6.00;99.90
7704;DHT22;3894;49.700;10.770;2022-12-18T09:33:50;-6.00;99.90
7704;DHT22;3894;49.700;10.770;2022-12-18T09:36:16;-5.90;99.90
7704;DHT22;3894;49.700;10.770;2022-12-18T09:38:43;-5.90;99.90
7704;DHT22;3894;49.700;10.770;2022-12-18T09:44:23;-5.80;99.90
7704;DHT22;3894;49.700;10.770;2022-12-18T09:49:34;-5.60;99.90
7704;DHT22;3894;49.700;10.770;2022-12-18T09:52:28;-5.60;99.90
7704;DHT22;3894;49.700;10.770;2022-12-18T09:55:02;-5.60;99.90
7704;DHT22;3894;49.700;10.770;2022-12-18T09:57:31;-5.50;99.90
7704;DHT22;3894;49.700;10.770;2022-12-18T10:00:04;-5.50;99.90
7704;DHT22;3894;49.700;10.770;2022-12-18T10:02:32;-5.40;99.90
7704;DHT22;3894;49.700;10.770;2022-12-18T10:10:48;-5.20;99.90
7704;DHT22;3894;49.700;10.770;2022-12-18T10:13:31;-5.20;99.90
7704;DHT22;3894;49.700;10.770;2022-12-18T10:21:26;-5.10;99.90
7704;DHT22;3894;49.700;10.770;2022-12-18T10:24:23;-5.00;99.90
7704;DHT22;3894;49.700;10.770;2022-12-18T10:26:55;-4.90;99.90
7704;DHT22;3894;49.700;10.770;2022-12-18T10:29:25;-4.80;99.90
7704;DHT22;3894;49.700;10.770;2022-12-18T10:31:51;-4.70;99.90
7704;DHT22;3894;49.700;10.770;2022-12-18T10:34:16;-4.60;99.90
7704;DHT22;3894;49.700;10.770;2022-12-18T10:36:42;-4.60;99.90
7704;DHT22;3894;49.700;10.770;2022-12-18T10:39:19;-4.50;99.90
7704;DHT22;3894;49.700;10.770;2022-12-18T10:41:45;-4.50;99.90
7704;DHT22;3894;49.700;10.770;2022-12-18T10:46:42;-4.40;99.90
7704;DHT22;3894;49.700;10.770;2022-12-18T10:49:19;-4.30;99.90
7704;DHT22;3894;49.700;10.770;2022-12-18T10:51:46;-4.30;99.90
7704;DHT22;3894;49.700;10.770;2022-12-18T10:54:16;-4.20;99.90
7704;DHT22;3894;49.700;10.770;2022-12-18T10:56:42;-4.20;99.90
7704;DHT22;3894;49.700;10.770;2022-12-18T10:59:10;-4.10;99.90
7704;DHT22;3894;49.700;10.770;2022-12-18T11:04:26;-3.90;99.90
7704;DHT22;3894;49.700;10.770;2022-12-18T11:06:54;-3.90;99.90
7704;DHT22;3894;49.700;10.770;2022-12-18T11:09:27;-3.80;99.90
7704;DHT22;3894;49.700;10.770;2022-12-18T11:11:56;-3.80;99.90
7704;DHT22;3894;49.700;10.770;2022-12-18T11:14:28;-3.70;99.90
7704;DHT22;3894;49.700;10.770;2022-12-18T11:16:55;-3.70;99.90
7704;DHT22;3894;49.700;10.770;2022-12-18T11:19:38;-3.60;99.90
7704;DHT22;3894;49.700;10.770;2022-12-18T11:22:26;-3.50;99.90
7704;DHT22;3894;49.700;10.770;2022-12-18T11:30:30;-3.60;99.90
7704;DHT22;3894;49.700;10.770;2022-12-18T11:33:31;-3.80;99.90
7704;DHT22;3894;49.700;10.770;2022-12-18T11:36:00;-3.80;99.90
7704;DHT22;3894;49.700;10.770;2022-12-18T11:38:40;-3.90;99.90
7704;DHT22;3894;49.700;10.770;2022-12-18T11:41:26;-3.90;99.90
7704;DHT22;3894;49.700;10.770;2022-12-18T11:44:15;-3.90;99.90
7704;DHT22;3894;49.700;10.770;2022-12-18T11:46:48;-3.90;99.90
7704;DHT22;3894;49.700;10.770;2022-12-18T11:49:33;-3.80;99.90
7704;DHT22;3894;49.700;10.770;2022-12-18T11:52:09;-3.80;99.90
7704;DHT22;3894;49.700;10.770;2022-12-18T11:54:35;-3.90;99.90
7704;DHT22;3894;49.700;10.770;2022-12-18T11:59:54;-3.80;99.90
7704;DHT22;3894;49.700;10.770;2022-12-18T12:08:41;-3.70;99.90
7704;DHT22;3894;49.700;10.770;2022-12-18T12:11:07;-3.70;99.90
7704;DHT22;3894;49.700;10.770;2022-12-18T12:16:23;-3.50;99.90
7704;DHT22;3894;49.700;10.770;2022-12-18T12:18:56;-3.50;99.90
7704;DHT22;3894;49.700;10.770;2022-12-18T12:21:45;-3.50;99.90
7704;DHT22;3894;49.700;10.770;2022-12-18T12:24:26;-3.40;99.90
7704;DHT22;3894;49.700;10.770;2022-12-18T12:27:03;-3.30;99.90
7704;DHT22;3894;49.700;10.770;2022-12-18T12:40:01;-3.00;99.90
7704;DHT22;3894;49.700;10.770;2022-12-18T12:42:41;-3.00;99.90
7704;DHT22;3894;49.700;10.770;2022-12-18T12:45:37;-3.00;99.90
7704;DHT22;3894;49.700;10.770;2022-12-18T12:48:07;-2.90;99.90
7704;DHT22;3894;49.700;10.770;2022-12-18T12:50:40;-2.90;99.90
7704;DHT22;3894;49.700;10.770;2022-12-18T12:53:08;-2.90;99.90
7704;DHT22;3894;49.700;10.770;2022-12-18T12:55:34;-2.90;99.90
7704;DHT22;3894;49.700;10.770;2022-12-18T12:58:14;-2.90;99.90
7704;DHT22;3894;49.700;10.770;2022-12-18T13:00:46;-2.90;99.90
7704;DHT22;3894;49.700;10.770;2022-12-18T13:03:39;-2.90;99.90
7704;DHT22;3894;49.700;10.770;2022-12-18T13:06:45;-2.80;99.90
7704;DHT22;3894;49.700;10.770;2022-12-18T13:09:13;-2.80;99.90
7704;DHT22;3894;49.700;10.770;2022-12-18T13:14:44;-2.80;99.90
7704;DHT22;3894;49.700;10.770;2022-12-18T13:17:30;-2.80;99.90
7704;DHT22;3894;49.700;10.770;2022-12-18T13:22:47;-2.80;99.90
7704;DHT22;3894;49.700;10.770;2022-12-18T13:25:33;-2.80;99.90
7704;DHT22;3894;49.700;10.770;2022-12-18T13:36:36;-2.80;99.90
7704;DHT22;3894;49.700;10.770;2022-12-18T13:38:38;-2.80;99.90
7704;DHT22;3894;49.700;10.770;2022-12-18T13:43:48;-2.80;99.90
7704;DHT22;3894;49.700;10.770;2022-12-18T13:51:44;-2.80;99.90
7704;DHT22;3894;49.700;10.770;2022-12-18T13:54:37;-2.90;99.90
7704;DHT22;3894;49.700;10.770;2022-12-18T13:57:12;-2.90;99.90
7704;DHT22;3894;49.700;10.770;2022-12-18T13:59:50;-2.90;99.90
7704;DHT22;3894;49.700;10.770;2022-12-18T14:02:18;-2.90;99.90
7704;DHT22;3894;49.700;10.770;2022-12-18T14:04:47;-2.90;99.90
7704;DHT22;3894;49.700;10.770;2022-12-18T14:07:24;-2.90;99.90
7704;DHT22;3894;49.700;10.770;2022-12-18T14:09:52;-2.90;99.90
7704;DHT22;3894;49.700;10.770;2022-12-18T14:12:25;-2.90;99.90
7704;DHT22;3894;49.700;10.770;2022-12-18T14:15:34;-3.00;99.90
7704;DHT22;3894;49.700;10.770;2022-12-18T14:20:31;-3.00;99.90
7704;DHT22;3894;49.700;10.770;2022-12-18T14:23:00;-3.00;99.90
7704;DHT22;3894;49.700;10.770;2022-12-18T14:25:27;-3.00;99.90
7704;DHT22;3894;49.700;10.770;2022-12-18T14:28:13;-3.00;99.90
7704;DHT22;3894;49.700;10.770;2022-12-18T14:30:41;-3.10;99.90
7704;DHT22;3894;49.700;10.770;2022-12-18T14:33:15;-3.10;99.90
7704;DHT22;3894;49.700;10.770;2022-12-18T14:35:51;-3.10;99.90
7704;DHT22;3894;49.700;10.770;2022-12-18T14:41:01;-3.20;99.90
7704;DHT22;3894;49.700;10.770;2022-12-18T14:43:30;-3.20;99.90
7704;DHT22;3894;49.700;10.770;2022-12-18T14:45:56;-3.30;99.90
7704;DHT22;3894;49.700;10.770;2022-12-18T14:48:40;-3.30;99.90
7704;DHT22;3894;49.700;10.770;2022-12-18T14:53:43;-3.40;99.90
7704;DHT22;3894;49.700;10.770;2022-12-18T14:56:17;-3.40;99.90
7704;DHT22;3894;49.700;10.770;2022-12-18T14:58:53;-3.50;99.90
7704;DHT22;3894;49.700;10.770;2022-12-18T15:01:35;-3.50;99.90
7704;DHT22;3894;49.700;10.770;2022-12-18T15:04:03;-3.50;99.90
7704;DHT22;3894;49.700;10.770;2022-12-18T15:06:35;-3.50;99.90
7704;DHT22;3894;49.700;10.770;2022-12-18T15:09:22;-3.60;99.90
7704;DHT22;3894;49.700;10.770;2022-12-18T15:11:48;-3.60;99.90
7704;DHT22;3894;49.700;10.770;2022-12-18T15:14:30;-3.60;99.90
7704;DHT22;3894;49.700;10.770;2022-12-18T15:17:01;-3.70;99.90
7704;DHT22;3894;49.700;10.770;2022-12-18T15:19:39;-3.70;99.90
7704;DHT22;3894;49.700;10.770;2022-12-18T15:22:22;-3.70;99.90
7704;DHT22;3894;49.700;10.770;2022-12-18T15:24:49;-3.70;99.90
7704;DHT22;3894;49.700;10.770;2022-12-18T15:27:35;-3.80;99.90
7704;DHT22;3894;49.700;10.770;2022-12-18T15:32:36;-3.80;99.90
7704;DHT22;3894;49.700;10.770;2022-12-18T15:37:34;-3.80;99.90
7704;DHT22;3894;49.700;10.770;2022-12-18T15:39:59;-3.90;99.90
7704;DHT22;3894;49.700;10.770;2022-12-18T15:42:25;-3.90;99.90
7704;DHT22;3894;49.700;10.770;2022-12-18T15:45:13;-3.90;99.90
7704;DHT22;3894;49.700;10.770;2022-12-18T15:47:38;-3.90;99.90
7704;DHT22;3894;49.700;10.770;2022-12-18T15:50:05;-3.90;99.90
7704;DHT22;3894;49.700;10.770;2022-12-18T15:52:38;-3.90;99.90
7704;DHT22;3894;49.700;10.770;2022-12-18T15:55:09;-3.90;99.90
7704;DHT22;3894;49.700;10.770;2022-12-18T15:57:54;-4.00;99.90
7704;DHT22;3894;49.700;10.770;2022-12-18T16:00:20;-4.00;99.90
7704;DHT22;3894;49.700;10.770;2022-12-18T16:02:45;-4.00;99.90
7704;DHT22;3894;49.700;10.770;2022-12-18T16:05:16;-4.00;99.90
7704;DHT22;3894;49.700;10.770;2022-12-18T16:07:42;-4.00;99.90
7704;DHT22;3894;49.700;10.770;2022-12-18T16:10:08;-4.10;99.90
7704;DHT22;3894;49.700;10.770;2022-12-18T16:12:34;-4.10;99.90
7704;DHT22;3894;49.700;10.770;2022-12-18T16:15:00;-4.10;99.90
7704;DHT22;3894;49.700;10.770;2022-12-18T16:17:26;-4.10;99.90
7704;DHT22;3894;49.700;10.770;2022-12-18T16:19:51;-4.10;99.90
7704;DHT22;3894;49.700;10.770;2022-12-18T16:22:25;-4.10;99.90
7704;DHT22;3894;49.700;10.770;2022-12-18T16:24:52;-4.20;99.90
7704;DHT22;3894;49.700;10.770;2022-12-18T16:27:18;-4.20;99.90
7704;DHT22;3894;49.700;10.770;2022-12-18T16:29:44;-4.20;99.90
7704;DHT22;3894;49.700;10.770;2022-12-18T16:32:14;-4.20;99.90
7704;DHT22;3894;49.700;10.770;2022-12-18T16:34:40;-4.20;99.90
7704;DHT22;3894;49.700;10.770;2022-12-18T16:37:08;-4.20;99.90
7704;DHT22;3894;49.700;10.770;2022-12-18T16:39:34;-4.20;99.90
7704;DHT22;3894;49.700;10.770;2022-12-18T16:42:02;-4.20;99.90
7704;DHT22;3894;49.700;10.770;2022-12-18T16:44:28;-4.20;99.90
7704;DHT22;3894;49.700;10.770;2022-12-18T16:46:54;-4.20;99.90
7704;DHT22;3894;49.700;10.770;2022-12-18T16:49:19;-4.30;99.90
7704;DHT22;3894;49.700;10.770;2022-12-18T16:51:46;-4.30;99.90
7704;DHT22;3894;49.700;10.770;2022-12-18T16:54:12;-4.30;99.90
7704;DHT22;3894;49.700;10.770;2022-12-18T16:56:38;-4.30;99.90
7704;DHT22;3894;49.700;10.770;2022-12-18T16:59:05;-4.30;99.90
7704;DHT22;3894;49.700;10.770;2022-12-18T17:01:31;-4.30;99.90
7704;DHT22;3894;49.700;10.770;2022-12-18T17:03:59;-4.30;99.90
7704;DHT22;3894;49.700;10.770;2022-12-18T17:06:27;-4.30;99.90
7704;DHT22;3894;49.700;10.770;2022-12-18T17:09:02;-4.30;99.90
7704;DHT22;3894;49.700;10.770;2022-12-18T17:11:28;-4.30;99.90
7704;DHT22;3894;49.700;10.770;2022-12-18T17:13:54;-4.30;99.90
7704;DHT22;3894;49.700;10.770;2022-12-18T17:16:21;-4.20;99.90
7704;DHT22;3894;49.700;10.770;2022-12-18T17:18:47;-4.20;99.90
7704;DHT22;3894;49.700;10.770;2022-12-18T17:21:13;-4.30;99.90
7704;DHT22;3894;49.700;10.770;2022-12-18T17:23:39;-4.20;99.90
7704;DHT22;3894;49.700;10.770;2022-12-18T17:26:05;-4.20;99.90
7704;DHT22;3894;49.700;10.770;2022-12-18T17:28:33;-4.30;99.90
7704;DHT22;3894;49.700;10.770;2022-12-18T17:30:59;-4.30;99.90
7704;DHT22;3894;49.700;10.770;2022-12-18T17:33:25;-4.30;99.90
7704;DHT22;3894;49.700;10.770;2022-12-18T17:35:51;-4.30;99.90
7704;DHT22;3894;49.700;10.770;2022-12-18T17:38:17;-4.30;99.90
7704;DHT22;3894;49.700;10.770;2022-12-18T17:40:45;-4.30;99.90
7704;DHT22;3894;49.700;10.770;2022-12-18T17:43:11;-4.30;99.90
7704;DHT22;3894;49.700;10.770;2022-12-18T17:45:38;-4.30;99.90
7704;DHT22;3894;49.700;10.770;2022-12-18T17:48:04;-4.30;99.90